createdAt,value
2018-06-13T00:01:19.160Z,100575.08
2018-06-13T00:03:46.313Z,100569.77
2018-06-13T00:06:13.484Z,100573.69
2018-06-13T00:08:40.696Z,100575.48
2018-06-13T00:11:08.311Z,100567.69
2018-06-13T00:13:35.902Z,100569.20
2018-06-13T00:16:03.955Z,100567.30
2018-06-13T00:18:32.842Z,100562.55
2018-06-13T00:21:00.750Z,100559.39
2018-06-13T00:23:28.016Z,100569.66
2018-06-13T00:25:55.160Z,100560.65
2018-06-13T00:28:22.313Z,100564.88
2018-06-13T00:30:49.476Z,100568.47
2018-06-13T00:33:16.644Z,100565.73
2018-06-13T00:35:43.799Z,100563.37
2018-06-13T00:38:11.020Z,100565.34
2018-06-13T00:40:38.419Z,100569.14
2018-06-13T00:43:06.107Z,100576.17
2018-06-13T00:45:34.133Z,100565.34
2018-06-13T00:48:02.251Z,100570.47
2018-06-13T00:50:32.466Z,100565.08
2018-06-13T00:53:00.978Z,100570.09
2018-06-13T00:55:28.284Z,100561.63
2018-06-13T00:57:55.432Z,100561.27
2018-06-13T01:00:22.671Z,100566.18
2018-06-13T01:02:49.842Z,100563.59
2018-06-13T01:05:16.980Z,100574.81
2018-06-13T01:07:44.182Z,100570.68
2018-06-13T01:10:11.344Z,100565.05
2018-06-13T01:12:38.854Z,100563.19
2018-06-13T01:15:06.293Z,100568.38
2018-06-13T01:17:34.096Z,100565.30
2018-06-13T01:20:02.169Z,100561.33
2018-06-13T01:22:29.830Z,100562.72
2018-06-13T01:24:57.072Z,100555.22
2018-06-13T01:27:24.189Z,100560.92
2018-06-13T01:29:51.381Z,100558.41
2018-06-13T01:32:18.560Z,100551.97
2018-06-13T01:34:45.698Z,100553.10
2018-06-13T01:37:12.993Z,100553.03
2018-06-13T01:39:40.200Z,100551.84
2018-06-13T01:42:07.600Z,100560.67
2018-06-13T01:44:35.084Z,100560.44
2018-06-13T01:47:03.058Z,100558.53
2018-06-13T01:49:30.856Z,100554.92
2018-06-13T01:51:58.061Z,100553.00
2018-06-13T01:54:25.318Z,100554.78
2018-06-13T01:56:52.478Z,100550.94
2018-06-13T01:59:19.696Z,100553.92
2018-06-13T02:01:46.860Z,100553.77
2018-06-13T02:04:13.995Z,100560.00
2018-06-13T02:06:41.181Z,100558.67
2018-06-13T02:09:08.528Z,100559.04
2018-06-13T02:11:35.981Z,100552.27
2018-06-13T02:14:03.932Z,100553.50
2018-06-13T02:16:31.912Z,100553.60
2018-06-13T02:18:59.388Z,100543.20
2018-06-13T02:21:26.668Z,100546.94
2018-06-13T02:23:53.798Z,100544.69
2018-06-13T02:26:20.916Z,100550.39
2018-06-13T02:28:48.138Z,100546.94
2018-06-13T02:31:15.403Z,100550.86
2018-06-13T02:33:42.577Z,100555.16
2018-06-13T02:36:10.008Z,100557.34
2018-06-13T02:38:37.425Z,100553.00
2018-06-13T02:41:04.946Z,100553.62
2018-06-13T02:43:32.406Z,100563.89
2018-06-13T02:46:00.075Z,100557.60
2018-06-13T02:48:27.279Z,100560.27
2018-06-13T02:50:54.607Z,100565.27
2018-06-13T02:53:21.844Z,100567.58
2018-06-13T02:55:49.017Z,100565.28
2018-06-13T02:58:16.309Z,100569.78
2018-06-13T03:00:43.488Z,100572.59
2018-06-13T03:03:10.667Z,100577.16
2018-06-13T03:05:38.462Z,100578.89
2018-06-13T03:08:06.046Z,100579.63
2018-06-13T03:10:33.861Z,100576.64
2018-06-13T03:13:02.349Z,100578.01
2018-06-13T03:15:31.118Z,100575.50
2018-06-13T03:17:58.359Z,100577.50
2018-06-13T03:20:25.908Z,100580.68
2018-06-13T03:22:53.170Z,100579.63
2018-06-13T03:25:20.330Z,100577.08
2018-06-13T03:27:47.515Z,100580.55
2018-06-13T03:30:14.755Z,100586.91
2018-06-13T03:32:41.912Z,100594.85
2018-06-13T03:35:09.437Z,100588.04
2018-06-13T03:37:36.786Z,100601.23
2018-06-13T03:40:04.544Z,100600.09
2018-06-13T03:42:32.374Z,100599.56
2018-06-13T03:44:59.958Z,100607.62
2018-06-13T03:47:27.371Z,100602.80
2018-06-13T03:49:54.965Z,100603.30
2018-06-13T03:52:22.095Z,100597.77
2018-06-13T03:54:49.358Z,100596.22
2018-06-13T03:57:16.575Z,100600.72
2018-06-13T03:59:43.825Z,100597.88
2018-06-13T04:02:11.020Z,100596.78
2018-06-13T04:04:38.815Z,100597.98
2018-06-13T04:07:06.551Z,100600.63
2018-06-13T04:09:34.184Z,100593.91
2018-06-13T04:12:02.731Z,100603.95
2018-06-13T04:14:30.585Z,100604.62
2018-06-13T04:16:57.864Z,100604.95
2018-06-13T04:19:26.532Z,100607.91
2018-06-13T04:21:53.639Z,100608.44
2018-06-13T04:24:20.839Z,100613.73
2018-06-13T04:26:48.024Z,100612.68
2018-06-13T04:29:15.266Z,100603.83
2018-06-13T04:31:42.385Z,100603.36
2018-06-13T04:34:09.894Z,100601.81
2018-06-13T04:36:37.487Z,100599.98
2018-06-13T04:39:08.472Z,100599.95
2018-06-13T04:41:36.259Z,100602.08
2018-06-13T04:44:04.287Z,100603.07
2018-06-13T04:46:32.566Z,100605.52
2018-06-13T04:49:00.830Z,100610.72
2018-06-13T04:51:28.496Z,100610.30
2018-06-13T04:53:55.883Z,100608.30
2018-06-13T04:56:23.040Z,100619.02
2018-06-13T04:58:50.985Z,100616.06
2018-06-13T05:01:18.120Z,100618.66
2018-06-13T05:03:45.304Z,100616.80
2018-06-13T05:06:12.437Z,100621.38
2018-06-13T05:08:39.779Z,100619.94
2018-06-13T05:11:07.236Z,100630.05
2018-06-13T05:13:34.530Z,100630.51
2018-06-13T05:16:02.356Z,100632.58
2018-06-13T05:18:29.883Z,100638.12
2018-06-13T05:20:57.067Z,100634.39
2018-06-13T05:23:24.182Z,100643.23
2018-06-13T05:25:51.356Z,100637.27
2018-06-13T05:28:18.487Z,100640.63
2018-06-13T05:30:45.780Z,100638.72
2018-06-13T05:33:12.953Z,100641.19
2018-06-13T05:35:40.319Z,100649.92
2018-06-13T05:38:08.166Z,100645.88
2018-06-13T05:40:35.814Z,100647.39
2018-06-13T05:43:03.718Z,100646.30
2018-06-13T05:45:31.655Z,100653.52
2018-06-13T05:47:58.999Z,100655.62
2018-06-13T05:50:26.124Z,100659.68
2018-06-13T05:52:53.508Z,100665.41
2018-06-13T05:55:20.666Z,100656.59
2018-06-13T05:57:47.797Z,100659.41
2018-06-13T06:00:14.903Z,100663.83
2018-06-13T06:02:42.111Z,100668.91
2018-06-13T06:05:09.597Z,100665.78
2018-06-13T06:07:36.890Z,100666.88
2018-06-13T06:10:04.650Z,100671.27
2018-06-13T06:12:32.391Z,100670.98
2018-06-13T06:15:00.085Z,100663.42
2018-06-13T06:17:27.249Z,100668.64
2018-06-13T06:19:54.376Z,100672.25
2018-06-13T06:22:21.579Z,100670.32
2018-06-13T06:24:48.748Z,100671.45
2018-06-13T06:27:15.910Z,100676.97
2018-06-13T06:29:43.044Z,100670.95
2018-06-13T06:32:10.459Z,100666.91
2018-06-13T06:34:37.994Z,100675.20
2018-06-13T06:37:05.531Z,100666.58
2018-06-13T06:39:33.700Z,100670.33
2018-06-13T06:42:01.702Z,100669.20
2018-06-13T06:44:29.012Z,100670.23
2018-06-13T06:46:56.187Z,100667.73
2018-06-13T06:49:23.323Z,100664.78
2018-06-13T06:51:50.495Z,100662.73
2018-06-13T06:54:18.069Z,100661.17
2018-06-13T06:56:45.208Z,100656.66
2018-06-13T06:59:12.331Z,100658.01
2018-06-13T07:01:39.700Z,100661.91
2018-06-13T07:04:07.188Z,100657.18
2018-06-13T07:06:34.726Z,100643.91
2018-06-13T07:09:02.538Z,100646.03
2018-06-13T07:11:31.114Z,100648.00
2018-06-13T07:13:58.316Z,100638.70
2018-06-13T07:16:25.468Z,100645.73
2018-06-13T07:18:52.599Z,100645.88
2018-06-13T07:21:19.826Z,100647.03
2018-06-13T07:23:47.009Z,100649.88
2018-06-13T07:26:14.122Z,100646.12
2018-06-13T07:28:41.342Z,100638.42
2018-06-13T07:31:08.694Z,100642.20
2018-06-13T07:33:36.950Z,100644.34
2018-06-13T07:36:04.312Z,100638.37
2018-06-13T07:38:32.095Z,100638.20
2018-06-13T07:40:59.490Z,100637.04
2018-06-13T07:43:26.689Z,100638.84
2018-06-13T07:45:53.892Z,100635.47
2018-06-13T07:48:21.044Z,100640.73
2018-06-13T07:50:48.216Z,100634.34
2018-06-13T07:53:15.544Z,100630.39
2018-06-13T07:55:42.655Z,100636.67
2018-06-13T07:58:09.983Z,100633.90
2018-06-13T08:00:37.363Z,100629.61
2018-06-13T08:03:05.250Z,100637.14
2018-06-13T08:05:34.204Z,100639.98
2018-06-13T08:08:02.439Z,100640.88
2018-06-13T08:10:30.317Z,100638.25
2018-06-13T08:12:57.477Z,100637.95
2018-06-13T08:15:24.693Z,100645.42
2018-06-13T08:17:52.029Z,100638.95
2018-06-13T08:20:19.249Z,100651.58
2018-06-13T08:22:46.526Z,100655.25
2018-06-13T08:25:13.662Z,100656.27
2018-06-13T08:27:46.773Z,100651.44
2018-06-13T08:30:14.007Z,100653.16
2018-06-13T08:32:41.129Z,100656.06
2018-06-13T08:35:08.401Z,100664.20
2018-06-13T08:37:36.806Z,100657.14
2018-06-13T08:40:04.227Z,100650.92
2018-06-13T08:42:32.452Z,100654.19
2018-06-13T08:45:00.357Z,100652.67
2018-06-13T08:47:27.479Z,100650.14
2018-06-13T08:49:54.661Z,100649.53
2018-06-13T08:52:21.848Z,100648.36
2018-06-13T08:54:48.988Z,100650.81
2018-06-13T08:57:16.095Z,100645.45
2018-06-13T08:59:43.224Z,100649.67
2018-06-13T09:02:10.447Z,100652.48
2018-06-13T09:04:37.929Z,100649.80
2018-06-13T09:07:05.339Z,100655.98
2018-06-13T09:09:33.233Z,100654.52
2018-06-13T09:12:00.803Z,100651.75
2018-06-13T09:14:28.005Z,100651.96
2018-06-13T09:16:55.136Z,100657.87
2018-06-13T09:19:22.384Z,100660.34
2018-06-13T09:21:49.562Z,100658.24
2018-06-13T09:24:16.678Z,100661.06
2018-06-13T09:26:43.819Z,100651.44
2018-06-13T09:29:11.190Z,100644.95
2018-06-13T09:31:38.840Z,100652.39
2018-06-13T09:34:06.503Z,100662.97
2018-06-13T09:36:34.456Z,100666.00
2018-06-13T09:39:03.173Z,100673.59
2018-06-13T09:41:31.387Z,100668.88
2018-06-13T09:43:58.765Z,100668.69
2018-06-13T09:46:25.923Z,100664.89
2018-06-13T09:48:53.480Z,100666.53
2018-06-13T09:51:20.665Z,100664.67
2018-06-13T09:53:47.792Z,100668.00
2018-06-13T09:56:15.017Z,100661.38
2018-06-13T09:58:47.944Z,100671.09
2018-06-13T10:01:20.736Z,100663.16
2018-06-13T10:03:49.968Z,100665.06
2018-06-13T10:06:17.148Z,100664.44
2018-06-13T10:08:44.280Z,100662.45
2018-06-13T10:11:11.478Z,100663.87
2018-06-13T10:13:38.777Z,100670.70
2018-06-13T10:16:06.179Z,100668.98
2018-06-13T10:18:34.309Z,100661.54
2018-06-13T10:21:02.365Z,100668.20
2018-06-13T10:23:29.802Z,100670.33
2018-06-13T10:25:56.940Z,100670.09
2018-06-13T10:28:24.065Z,100664.39
2018-06-13T10:30:51.896Z,100666.58
2018-06-13T10:33:19.149Z,100673.08
2018-06-13T10:35:46.263Z,100691.17
2018-06-13T10:38:13.402Z,100675.45
2018-06-13T10:40:40.727Z,100685.42
2018-06-13T10:43:08.437Z,100686.49
2018-06-13T10:45:35.930Z,100682.32
2018-06-13T10:48:03.880Z,100687.77
2018-06-13T10:50:31.665Z,100690.92
2018-06-13T10:52:59.775Z,100692.42
2018-06-13T10:55:27.004Z,100693.59
2018-06-13T10:57:54.196Z,100695.95
2018-06-13T11:00:21.459Z,100688.98
2018-06-13T11:02:48.683Z,100691.66
2018-06-13T11:05:15.804Z,100685.22
2018-06-13T11:07:42.935Z,100689.69
2018-06-13T11:10:10.081Z,100685.58
2018-06-13T11:12:37.438Z,100689.36
2018-06-13T11:15:04.736Z,100693.90
2018-06-13T11:17:32.125Z,100695.72
2018-06-13T11:20:01.778Z,100701.45
2018-06-13T11:22:28.887Z,100707.89
2018-06-13T11:24:56.091Z,100707.07
2018-06-13T11:27:23.188Z,100714.83
2018-06-13T11:29:50.312Z,100717.50
2018-06-13T11:32:19.533Z,100717.11
2018-06-13T11:34:46.644Z,100719.70
2018-06-13T11:37:13.909Z,100723.98
2018-06-13T11:39:41.179Z,100727.89
2018-06-13T11:42:09.458Z,100726.34
2018-06-13T11:44:36.989Z,100724.62
2018-06-13T11:47:04.349Z,100724.52
2018-06-13T11:49:31.530Z,100724.91
2018-06-13T11:51:58.873Z,100727.75
2018-06-13T11:54:26.044Z,100727.09
2018-06-13T11:56:53.172Z,100721.39
2018-06-13T11:59:20.304Z,100719.98
2018-06-13T12:01:48.590Z,100730.69
2018-06-13T12:04:16.212Z,100728.36
2018-06-13T12:06:43.490Z,100725.55
2018-06-13T12:09:11.121Z,100727.94
2018-06-13T12:11:38.388Z,100719.12
2018-06-13T12:14:05.719Z,100717.91
2018-06-13T12:16:32.881Z,100724.84
2018-06-13T12:19:00.099Z,100724.03
2018-06-13T12:21:27.259Z,100722.84
2018-06-13T12:23:54.402Z,100721.95
2018-06-13T12:26:21.538Z,100719.09
2018-06-13T12:28:48.650Z,100721.67
2018-06-13T12:31:15.907Z,100720.00
2018-06-13T12:33:43.235Z,100720.27
2018-06-13T12:36:10.441Z,100725.20
2018-06-13T12:38:38.964Z,100727.63
2018-06-13T12:41:06.773Z,100716.89
2018-06-13T12:43:35.358Z,100721.80
2018-06-13T12:46:04.225Z,100724.66
2018-06-13T12:48:31.449Z,100721.70
2018-06-13T12:50:58.603Z,100732.91
2018-06-13T12:53:25.771Z,100731.20
2018-06-13T12:55:53.005Z,100732.20
2018-06-13T12:58:20.241Z,100735.47
2018-06-13T13:00:47.517Z,100733.45
2018-06-13T13:03:14.727Z,100737.11
2018-06-13T13:05:42.063Z,100737.97
2018-06-13T13:08:09.439Z,100739.91
2018-06-13T13:10:37.669Z,100733.60
2018-06-13T13:13:06.023Z,100730.78
2018-06-13T13:15:34.116Z,100734.06
2018-06-13T13:18:01.330Z,100734.22
2018-06-13T13:20:28.573Z,100732.43
2018-06-13T13:22:55.745Z,100734.28
2018-06-13T13:25:22.970Z,100728.84
2018-06-13T13:27:50.081Z,100731.31
2018-06-13T13:30:17.377Z,100727.78
2018-06-13T13:32:44.654Z,100719.34
2018-06-13T13:35:11.929Z,100725.36
2018-06-13T13:37:39.298Z,100726.98
2018-06-13T13:40:07.673Z,100727.52
2018-06-13T13:42:35.132Z,100724.42
2018-06-13T13:45:02.412Z,100735.08
2018-06-13T13:47:29.600Z,100724.89
2018-06-13T13:49:56.732Z,100739.23
2018-06-13T13:52:23.904Z,100733.98
2018-06-13T13:54:51.066Z,100732.80
2018-06-13T13:57:18.177Z,100737.52
2018-06-13T13:59:45.374Z,100746.03
2018-06-13T14:02:12.646Z,100754.55
2018-06-13T14:04:39.926Z,100751.75
2018-06-13T14:07:07.255Z,100754.88
2018-06-13T14:09:34.675Z,100757.07
2018-06-13T14:12:03.967Z,100753.14
2018-06-13T14:14:31.204Z,100754.89
2018-06-13T14:16:58.315Z,100757.17
2018-06-13T14:19:25.441Z,100756.08
2018-06-13T14:21:52.620Z,100747.02
2018-06-13T14:24:21.803Z,100761.86
2018-06-13T14:26:48.925Z,100763.54
2018-06-13T14:29:16.240Z,100757.67
2018-06-13T14:31:43.503Z,100768.78
2018-06-13T14:34:10.922Z,100765.20
2018-06-13T14:36:38.264Z,100767.38
2018-06-13T14:39:08.429Z,100764.18
2018-06-13T14:41:35.949Z,100764.75
2018-06-13T14:44:03.345Z,100768.64
2018-06-13T14:46:30.569Z,100769.83
2018-06-13T14:48:57.727Z,100766.37
2018-06-13T14:51:24.937Z,100768.26
2018-06-13T14:53:54.577Z,100766.31
2018-06-13T14:56:26.874Z,100764.85
2018-06-13T14:58:54.160Z,100759.88
2018-06-13T15:01:21.276Z,100762.13
2018-06-13T15:03:48.457Z,100763.44
2018-06-13T15:06:15.572Z,100768.41
2018-06-13T15:08:42.808Z,100771.47
2018-06-13T15:11:10.200Z,100767.55
2018-06-13T15:13:37.562Z,100770.68
2018-06-13T15:16:05.105Z,100771.30
2018-06-13T15:18:32.491Z,100776.69
2018-06-13T15:20:59.669Z,100776.46
2018-06-13T15:23:26.824Z,100782.05
2018-06-13T15:25:54.051Z,100786.48
2018-06-13T15:28:21.188Z,100789.31
2018-06-13T15:30:48.360Z,100787.41
2018-06-13T15:33:15.513Z,100785.86
2018-06-13T15:35:42.811Z,100785.87
2018-06-13T15:38:10.055Z,100786.09
2018-06-13T15:40:37.525Z,100787.81
2018-06-13T15:43:05.946Z,100788.74
2018-06-13T15:45:33.184Z,100791.55
2018-06-13T15:48:00.620Z,100788.42
2018-06-13T15:50:27.835Z,100789.12
2018-06-13T15:52:54.948Z,100787.60
2018-06-13T15:55:22.076Z,100791.81
2018-06-13T15:57:49.216Z,100791.12
2018-06-13T16:00:16.364Z,100788.98
2018-06-13T16:02:43.597Z,100788.00
2018-06-13T16:05:10.834Z,100785.29
2018-06-13T16:07:38.206Z,100794.97
2018-06-13T16:10:05.827Z,100790.16
2018-06-13T16:12:32.985Z,100794.69
2018-06-13T16:15:00.181Z,100794.30
2018-06-13T16:17:27.374Z,100788.72
2018-06-13T16:19:54.839Z,100796.70
2018-06-13T16:22:22.984Z,100802.89
2018-06-13T16:24:50.153Z,100799.28
2018-06-13T16:27:17.288Z,100798.02
2018-06-13T16:29:45.510Z,100800.54
2018-06-13T16:32:12.770Z,100804.54
2018-06-13T16:34:40.133Z,100807.45
2018-06-13T16:37:07.632Z,100811.19
2018-06-13T16:39:35.309Z,100814.97
2018-06-13T16:42:02.492Z,100820.97
2018-06-13T16:44:29.637Z,100811.58
2018-06-13T16:46:56.916Z,100816.36
2018-06-13T16:49:24.076Z,100812.44
2018-06-13T16:51:54.309Z,100821.42
2018-06-13T16:54:33.051Z,100828.30
2018-06-13T16:57:00.268Z,100820.98
2018-06-13T16:59:27.371Z,100829.91
2018-06-13T17:01:54.901Z,100834.77
2018-06-13T17:04:22.101Z,100841.98
2018-06-13T17:06:49.233Z,100841.48
2018-06-13T17:09:16.495Z,100846.30
2018-06-13T17:11:43.741Z,100838.66
2018-06-13T17:14:10.928Z,100840.25
2018-06-13T17:16:38.452Z,100833.83
2018-06-13T17:19:05.821Z,100844.53
2018-06-13T17:21:33.048Z,100843.53
2018-06-13T17:24:00.215Z,100850.44
2018-06-13T17:26:29.336Z,100847.13
2018-06-13T17:28:58.475Z,100849.97
2018-06-13T17:31:25.832Z,100852.79
2018-06-13T17:33:52.982Z,100859.88
2018-06-13T17:36:20.096Z,100860.04
2018-06-13T17:38:47.278Z,100868.92
2018-06-13T17:41:14.448Z,100865.80
2018-06-13T17:43:41.657Z,100863.14
2018-06-13T17:46:08.976Z,100864.07
2018-06-13T17:48:36.320Z,100864.17
2018-06-13T17:51:04.791Z,100869.30
2018-06-13T17:53:31.965Z,100869.36
2018-06-13T17:55:59.082Z,100865.75
2018-06-13T17:58:26.211Z,100871.39
2018-06-13T18:00:53.784Z,100876.45
2018-06-13T18:03:26.687Z,100875.88
2018-06-13T18:05:53.821Z,100880.06
2018-06-13T18:08:21.078Z,100876.51
2018-06-13T18:10:48.272Z,100886.34
2018-06-13T18:13:17.754Z,100880.63
2018-06-13T18:15:45.119Z,100881.98
2018-06-13T18:18:12.470Z,100886.54
2018-06-13T18:20:39.732Z,100896.00
2018-06-13T18:23:07.379Z,100897.33
2018-06-13T18:25:34.675Z,100900.52
2018-06-13T18:28:01.874Z,100902.94
2018-06-13T18:30:29.000Z,100907.91
2018-06-13T18:32:57.181Z,100916.25
2018-06-13T18:35:24.765Z,100908.37
2018-06-13T18:37:54.002Z,100914.62
2018-06-13T18:40:21.134Z,100910.48
2018-06-13T18:42:48.388Z,100917.89
2018-06-13T18:45:15.480Z,100911.59
2018-06-13T18:47:42.845Z,100911.72
2018-06-13T18:50:10.186Z,100909.47
2018-06-13T18:52:37.857Z,100912.35
2018-06-13T18:55:06.595Z,100913.09
2018-06-13T18:57:34.274Z,100912.08
2018-06-13T19:00:01.501Z,100914.42
2018-06-13T19:02:30.781Z,100919.52
2018-06-13T19:04:57.948Z,100917.08
2018-06-13T19:07:25.148Z,100920.60
2018-06-13T19:09:54.065Z,100923.31
2018-06-13T19:12:22.806Z,100924.89
2018-06-13T19:14:50.680Z,100924.89
2018-06-13T19:17:18.321Z,100935.85
2018-06-13T19:19:46.296Z,100934.34
2018-06-13T19:22:15.908Z,100941.44
2018-06-13T19:24:45.191Z,100942.89
2018-06-13T19:27:13.908Z,100942.95
2018-06-13T19:29:42.481Z,100943.62
2018-06-13T19:32:09.781Z,100947.39
2018-06-13T19:34:37.066Z,100948.53
2018-06-13T19:37:04.337Z,100947.33
2018-06-13T19:39:32.161Z,100954.77
2018-06-13T19:41:59.350Z,100954.59
2018-06-13T19:44:26.612Z,100961.22
2018-06-13T19:46:58.827Z,100962.45
2018-06-13T19:49:26.086Z,100957.48
2018-06-13T19:51:53.238Z,100959.67
2018-06-13T19:54:26.216Z,100963.19
2018-06-13T19:56:53.329Z,100970.09
2018-06-13T19:59:21.073Z,100969.35
2018-06-13T20:01:51.586Z,100965.12
2018-06-13T20:04:25.057Z,100965.75
2018-06-13T20:06:52.407Z,100964.02
2018-06-13T20:09:20.471Z,100962.70
2018-06-13T20:11:49.899Z,100956.25
2018-06-13T20:14:23.219Z,100962.83
2018-06-13T20:16:56.685Z,100960.89
2018-06-13T20:19:30.639Z,100965.09
2018-06-13T20:21:59.192Z,100968.36
2018-06-13T20:24:26.677Z,100970.14
2018-06-13T20:26:59.711Z,100978.30
2018-06-13T20:29:32.835Z,100982.03
2018-06-13T20:32:00.066Z,100983.16
2018-06-13T20:34:27.982Z,100979.43
2018-06-13T20:36:55.114Z,100984.22
2018-06-13T20:39:22.937Z,100987.99
2018-06-13T20:41:50.632Z,100981.71
2018-06-13T20:44:18.088Z,100980.39
2018-06-13T20:46:45.559Z,100979.28
2018-06-13T20:49:13.338Z,100977.38
2018-06-13T20:51:40.632Z,100976.47
2018-06-13T20:54:07.787Z,100977.27
2018-06-13T20:56:34.901Z,100976.26
2018-06-13T20:59:02.029Z,100975.56
2018-06-13T21:01:29.213Z,100975.94
2018-06-13T21:03:56.332Z,100978.66
2018-06-13T21:06:23.427Z,100977.27
2018-06-13T21:08:50.599Z,100978.19
2018-06-13T21:11:17.900Z,100988.80
2018-06-13T21:13:45.459Z,100987.08
2018-06-13T21:16:12.881Z,100989.47
2018-06-13T21:18:40.038Z,100994.52
2018-06-13T21:21:07.140Z,100998.49
2018-06-13T21:23:34.333Z,101000.16
2018-06-13T21:26:01.464Z,101001.09
2018-06-13T21:28:29.090Z,100998.44
2018-06-13T21:30:56.350Z,100993.99
2018-06-13T21:33:23.468Z,101004.49
2018-06-13T21:35:50.723Z,101005.84
2018-06-13T21:38:18.018Z,101007.55
2018-06-13T21:40:45.423Z,101001.75
2018-06-13T21:43:13.071Z,101002.84
2018-06-13T21:45:40.295Z,101002.44
2018-06-13T21:48:07.419Z,100999.53
2018-06-13T21:50:34.533Z,101002.13
2018-06-13T21:53:01.737Z,101004.78
2018-06-13T21:55:28.857Z,100999.27
2018-06-13T21:57:56.000Z,101002.58
2018-06-13T22:00:23.207Z,101006.80
2018-06-13T22:02:50.363Z,101001.48
2018-06-13T22:05:17.604Z,101005.91
2018-06-13T22:07:44.998Z,101009.71
2018-06-13T22:10:12.255Z,101008.77
2018-06-13T22:12:39.500Z,101015.08
2018-06-13T22:15:11.284Z,101016.46
2018-06-13T22:17:38.508Z,101020.70
2018-06-13T22:20:05.636Z,101018.51
2018-06-13T22:22:32.780Z,101019.83
2018-06-13T22:24:59.904Z,101016.17
2018-06-13T22:27:27.063Z,101017.91
2018-06-13T22:29:54.251Z,101021.08
2018-06-13T22:32:21.372Z,101028.17
2018-06-13T22:34:48.612Z,101030.25
2018-06-13T22:37:15.848Z,101031.41
2018-06-13T22:39:43.246Z,101026.94
2018-06-13T22:42:10.488Z,101028.66
2018-06-13T22:44:37.684Z,101030.39
2018-06-13T22:47:04.925Z,101030.91
2018-06-13T22:49:32.055Z,101026.38
2018-06-13T22:51:59.263Z,101024.45
2018-06-13T22:54:26.436Z,101035.12
2018-06-13T22:56:53.568Z,101035.52
2018-06-13T22:59:20.772Z,101037.27
2018-06-13T23:01:47.988Z,101033.11
2018-06-13T23:04:15.305Z,101036.59
2018-06-13T23:06:42.594Z,101036.02
2018-06-13T23:09:09.698Z,101024.45
2018-06-13T23:11:36.889Z,101030.02
2018-06-13T23:14:04.073Z,101038.14
2018-06-13T23:16:31.253Z,101038.14
2018-06-13T23:18:58.371Z,101042.27
2018-06-13T23:21:25.554Z,101040.18
2018-06-13T23:23:52.648Z,101039.72
2018-06-13T23:26:19.878Z,101036.40
2018-06-13T23:28:47.119Z,101033.90
2018-06-13T23:31:14.419Z,101039.20
2018-06-13T23:33:41.704Z,101040.13
2018-06-13T23:36:08.872Z,101043.59
2018-06-13T23:38:36.997Z,101040.64
2018-06-13T23:41:05.279Z,101035.12
2018-06-13T23:43:32.485Z,101040.89
2018-06-13T23:45:59.604Z,101036.66
2018-06-13T23:48:26.824Z,101040.75
2018-06-13T23:50:53.971Z,101040.54
2018-06-13T23:53:21.143Z,101039.73
2018-06-13T23:55:48.372Z,101033.83
2018-06-13T23:58:15.670Z,101039.42
